Cincinnati, Ohio
Traffic Map
Current Weather Conditions
Cincinnati, Ohio
Clear
Clear
26°
Feels Like: 27°
Wind Chill: 26° Ceiling: Unl
Heat Index: 27° Visibility: 9mi
Dew Point: 23° Wind: 3mph
Humidity: 84% Direction: 160° (SSE)
Pressure: 30.1in Gusts: 0mph
Raw Report DataKLUK 271353Z 16003KT 9SM CLR 26/23 A3010 RMK AO2 SLP187 T02560228
Traffic Incident Summary
Active as of:
Severity:
Category:
InformationThere was an issue retrieving the traffic information for this location. Please try a different location or try again shortly.
Advertisements
Track Severe Weather on mobile